sensor_id;sensor_type;location;lat;lon;timestamp;temperature;humidity
7684;DHT22;3884;48.616;12.872;2023-01-19T00:01:16;0.80;1.00
7684;DHT22;3884;48.616;12.872;2023-01-19T00:03:45;0.80;1.00
7684;DHT22;3884;48.616;12.872;2023-01-19T00:06:12;0.80;1.00
7684;DHT22;3884;48.616;12.872;2023-01-19T00:08:39;0.80;99.90
7684;DHT22;3884;48.616;12.872;2023-01-19T00:11:09;0.90;1.00
7684;DHT22;3884;48.616;12.872;2023-01-19T00:13:37;0.80;99.90
7684;DHT22;3884;48.616;12.872;2023-01-19T00:16:05;0.80;1.00
7684;DHT22;3884;48.616;12.872;2023-01-19T00:18:32;0.80;99.90
7684;DHT22;3884;48.616;12.872;2023-01-19T00:21:01;0.80;1.00
7684;DHT22;3884;48.616;12.872;2023-01-19T00:23:28;0.80;99.90
7684;DHT22;3884;48.616;12.872;2023-01-19T00:25:55;0.80;99.90
7684;DHT22;3884;48.616;12.872;2023-01-19T00:28:22;0.70;1.00
7684;DHT22;3884;48.616;12.872;2023-01-19T00:30:49;0.70;75.80
7684;DHT22;3884;48.616;12.872;2023-01-19T00:33:16;0.80;1.00
7684;DHT22;3884;48.616;12.872;2023-01-19T00:35:43;0.70;1.00
7684;DHT22;3884;48.616;12.872;2023-01-19T00:38:12;0.80;1.00
7684;DHT22;3884;48.616;12.872;2023-01-19T00:40:39;0.80;20.20
7684;DHT22;3884;48.616;12.872;2023-01-19T00:43:06;0.80;1.00
7684;DHT22;3884;48.616;12.872;2023-01-19T00:45:33;0.70;1.00
7684;DHT22;3884;48.616;12.872;2023-01-19T00:48:00;0.70;99.90
7684;DHT22;3884;48.616;12.872;2023-01-19T00:50:29;0.70;1.00
7684;DHT22;3884;48.616;12.872;2023-01-19T00:52:58;0.60;1.00
7684;DHT22;3884;48.616;12.872;2023-01-19T00:55:27;0.60;34.00
7684;DHT22;3884;48.616;12.872;2023-01-19T00:57:54;0.60;99.90
7684;DHT22;3884;48.616;12.872;2023-01-19T01:00:22;0.60;1.00
7684;DHT22;3884;48.616;12.872;2023-01-19T01:02:51;0.70;1.00
7684;DHT22;3884;48.616;12.872;2023-01-19T01:05:19;0.70;1.00
7684;DHT22;3884;48.616;12.872;2023-01-19T01:07:46;0.70;15.40
7684;DHT22;3884;48.616;12.872;2023-01-19T01:10:16;0.60;1.00
7684;DHT22;3884;48.616;12.872;2023-01-19T01:12:44;0.60;1.00
7684;DHT22;3884;48.616;12.872;2023-01-19T01:15:13;0.60;1.00
7684;DHT22;3884;48.616;12.872;2023-01-19T01:17:40;0.60;1.00
7684;DHT22;3884;48.616;12.872;2023-01-19T01:20:15;0.60;99.90
7684;DHT22;3884;48.616;12.872;2023-01-19T01:22:44;0.60;99.90
7684;DHT22;3884;48.616;12.872;2023-01-19T01:25:12;0.50;99.90
7684;DHT22;3884;48.616;12.872;2023-01-19T01:27:40;0.60;99.90
7684;DHT22;3884;48.616;12.872;2023-01-19T01:30:10;0.60;99.90
7684;DHT22;3884;48.616;12.872;2023-01-19T01:32:38;0.60;1.00
7684;DHT22;3884;48.616;12.872;2023-01-19T01:35:06;0.60;1.00
7684;DHT22;3884;48.616;12.872;2023-01-19T01:37:34;0.60;1.00
7684;DHT22;3884;48.616;12.872;2023-01-19T01:40:02;0.50;1.00
7684;DHT22;3884;48.616;12.872;2023-01-19T01:42:30;0.50;1.00
7684;DHT22;3884;48.616;12.872;2023-01-19T01:44:59;0.50;1.00
7684;DHT22;3884;48.616;12.872;2023-01-19T01:47:31;0.50;1.00
7684;DHT22;3884;48.616;12.872;2023-01-19T01:50:05;0.50;1.00
7684;DHT22;3884;48.616;12.872;2023-01-19T01:52:36;0.50;1.00
7684;DHT22;3884;48.616;12.872;2023-01-19T01:55:06;0.50;1.00
7684;DHT22;3884;48.616;12.872;2023-01-19T01:57:35;0.40;1.00
7684;DHT22;3884;48.616;12.872;2023-01-19T02:00:04;0.50;1.00
7684;DHT22;3884;48.616;12.872;2023-01-19T02:02:35;0.50;1.00
7684;DHT22;3884;48.616;12.872;2023-01-19T02:05:25;0.60;1.00
7684;DHT22;3884;48.616;12.872;2023-01-19T02:07:57;0.60;1.00
7684;DHT22;3884;48.616;12.872;2023-01-19T02:10:43;0.60;1.00
7684;DHT22;3884;48.616;12.872;2023-01-19T02:13:29;0.60;1.00
7684;DHT22;3884;48.616;12.872;2023-01-19T02:15:59;0.50;1.00
7684;DHT22;3884;48.616;12.872;2023-01-19T02:18:30;0.50;1.00
7684;DHT22;3884;48.616;12.872;2023-01-19T02:21:03;0.60;1.00
7684;DHT22;3884;48.616;12.872;2023-01-19T02:23:45;0.50;1.00
7684;DHT22;3884;48.616;12.872;2023-01-19T02:26:17;0.50;1.00
7684;DHT22;3884;48.616;12.872;2023-01-19T02:28:47;0.50;1.00
7684;DHT22;3884;48.616;12.872;2023-01-19T02:31:16;0.40;1.00
7684;DHT22;3884;48.616;12.872;2023-01-19T02:33:43;0.40;1.00
7684;DHT22;3884;48.616;12.872;2023-01-19T02:36:12;0.40;90.00
7684;DHT22;3884;48.616;12.872;2023-01-19T02:38:43;0.30;99.90
7684;DHT22;3884;48.616;12.872;2023-01-19T02:41:13;0.30;99.90
7684;DHT22;3884;48.616;12.872;2023-01-19T02:43:42;0.30;99.90
7684;DHT22;3884;48.616;12.872;2023-01-19T02:46:09;0.30;99.90
7684;DHT22;3884;48.616;12.872;2023-01-19T02:48:36;0.30;99.90
7684;DHT22;3884;48.616;12.872;2023-01-19T02:51:11;0.20;99.90
7684;DHT22;3884;48.616;12.872;2023-01-19T02:54:04;0.20;99.90
7684;DHT22;3884;48.616;12.872;2023-01-19T02:57:04;0.10;99.90
7684;DHT22;3884;48.616;12.872;2023-01-19T02:59:44;0.20;99.90
7684;DHT22;3884;48.616;12.872;2023-01-19T03:02:22;0.10;99.90
7684;DHT22;3884;48.616;12.872;2023-01-19T03:04:58;0.10;99.90
7684;DHT22;3884;48.616;12.872;2023-01-19T03:07:33;0.20;99.90
7684;DHT22;3884;48.616;12.872;2023-01-19T03:10:06;0.20;99.90
7684;DHT22;3884;48.616;12.872;2023-01-19T03:12:39;0.20;99.90
7684;DHT22;3884;48.616;12.872;2023-01-19T03:15:14;0.10;99.90
7684;DHT22;3884;48.616;12.872;2023-01-19T03:17:44;0.10;94.20
7684;DHT22;3884;48.616;12.872;2023-01-19T03:20:18;0.10;1.00
7684;DHT22;3884;48.616;12.872;2023-01-19T03:22:47;0.00;1.00
7684;DHT22;3884;48.616;12.872;2023-01-19T03:25:17;0.00;99.90
7684;DHT22;3884;48.616;12.872;2023-01-19T03:27:47;-0.10;25.50
7684;DHT22;3884;48.616;12.872;2023-01-19T03:30:21;0.00;20.60
7684;DHT22;3884;48.616;12.872;2023-01-19T03:32:51;-0.10;1.00
7684;DHT22;3884;48.616;12.872;2023-01-19T03:35:22;-0.10;99.90
7684;DHT22;3884;48.616;12.872;2023-01-19T03:37:53;-0.10;1.00
7684;DHT22;3884;48.616;12.872;2023-01-19T03:40:25;-0.10;1.00
7684;DHT22;3884;48.616;12.872;2023-01-19T03:42:54;-0.10;33.50
7684;DHT22;3884;48.616;12.872;2023-01-19T03:45:22;-0.10;16.90
7684;DHT22;3884;48.616;12.872;2023-01-19T03:47:49;-0.20;1.00
7684;DHT22;3884;48.616;12.872;2023-01-19T03:50:23;-0.20;1.00
7684;DHT22;3884;48.616;12.872;2023-01-19T03:53:05;-0.20;1.00
7684;DHT22;3884;48.616;12.872;2023-01-19T03:55:37;-0.20;28.80
7684;DHT22;3884;48.616;12.872;2023-01-19T03:58:04;-0.30;1.00
7684;DHT22;3884;48.616;12.872;2023-01-19T04:00:32;-0.20;1.00
7684;DHT22;3884;48.616;12.872;2023-01-19T04:02:59;-0.20;99.90
7684;DHT22;3884;48.616;12.872;2023-01-19T04:05:26;-0.30;99.90
7684;DHT22;3884;48.616;12.872;2023-01-19T04:07:54;-0.30;1.00
7684;DHT22;3884;48.616;12.872;2023-01-19T04:10:21;-0.30;99.90
7684;DHT22;3884;48.616;12.872;2023-01-19T04:12:57;-0.30;1.00
7684;DHT22;3884;48.616;12.872;2023-01-19T04:15:24;-0.30;1.00
7684;DHT22;3884;48.616;12.872;2023-01-19T04:17:52;-0.30;1.00
7684;DHT22;3884;48.616;12.872;2023-01-19T04:20:19;-0.30;99.90
7684;DHT22;3884;48.616;12.872;2023-01-19T04:22:47;-0.30;99.90
7684;DHT22;3884;48.616;12.872;2023-01-19T04:25:15;-0.30;42.80
7684;DHT22;3884;48.616;12.872;2023-01-19T04:27:42;-0.30;1.00
7684;DHT22;3884;48.616;12.872;2023-01-19T04:30:12;-0.30;1.00
7684;DHT22;3884;48.616;12.872;2023-01-19T04:32:39;-0.30;1.00
7684;DHT22;3884;48.616;12.872;2023-01-19T04:35:07;-0.30;1.00
7684;DHT22;3884;48.616;12.872;2023-01-19T04:37:34;-0.30;1.00
7684;DHT22;3884;48.616;12.872;2023-01-19T04:40:01;-0.30;1.00
7684;DHT22;3884;48.616;12.872;2023-01-19T04:42:28;-0.30;1.00
7684;DHT22;3884;48.616;12.872;2023-01-19T04:44:55;-0.30;1.00
7684;DHT22;3884;48.616;12.872;2023-01-19T04:47:23;-0.40;99.90
7684;DHT22;3884;48.616;12.872;2023-01-19T04:49:50;-0.40;1.00
7684;DHT22;3884;48.616;12.872;2023-01-19T04:52:17;-0.30;1.00
7684;DHT22;3884;48.616;12.872;2023-01-19T04:54:44;-0.30;1.00
7684;DHT22;3884;48.616;12.872;2023-01-19T04:57:12;-0.30;99.90
7684;DHT22;3884;48.616;12.872;2023-01-19T04:59:39;-0.20;1.00
7684;DHT22;3884;48.616;12.872;2023-01-19T05:02:06;-0.20;99.90
7684;DHT22;3884;48.616;12.872;2023-01-19T05:04:35;-0.20;1.00
7684;DHT22;3884;48.616;12.872;2023-01-19T05:07:02;-0.20;99.90
7684;DHT22;3884;48.616;12.872;2023-01-19T05:09:29;-0.20;1.00
7684;DHT22;3884;48.616;12.872;2023-01-19T05:11:56;-0.20;1.00
7684;DHT22;3884;48.616;12.872;2023-01-19T05:14:23;-0.20;99.90
7684;DHT22;3884;48.616;12.872;2023-01-19T05:16:50;-0.10;99.90
7684;DHT22;3884;48.616;12.872;2023-01-19T05:19:17;-0.10;99.90
7684;DHT22;3884;48.616;12.872;2023-01-19T05:21:45;-0.10;1.00
7684;DHT22;3884;48.616;12.872;2023-01-19T05:24:12;-0.20;99.90
7684;DHT22;3884;48.616;12.872;2023-01-19T05:26:40;-0.10;99.90
7684;DHT22;3884;48.616;12.872;2023-01-19T05:29:07;0.00;25.40
7684;DHT22;3884;48.616;12.872;2023-01-19T05:31:34;0.00;1.00
7684;DHT22;3884;48.616;12.872;2023-01-19T05:34:01;-0.10;1.00
7684;DHT22;3884;48.616;12.872;2023-01-19T05:36:29;-0.10;1.00
7684;DHT22;3884;48.616;12.872;2023-01-19T05:38:57;-0.10;96.10
7684;DHT22;3884;48.616;12.872;2023-01-19T05:41:24;-0.20;1.00
7684;DHT22;3884;48.616;12.872;2023-01-19T05:43:51;-0.10;14.50
7684;DHT22;3884;48.616;12.872;2023-01-19T05:46:18;-0.30;1.00
7684;DHT22;3884;48.616;12.872;2023-01-19T05:48:45;-0.30;1.00
7684;DHT22;3884;48.616;12.872;2023-01-19T05:51:12;-0.30;1.00
7684;DHT22;3884;48.616;12.872;2023-01-19T05:53:39;-0.20;99.90
7684;DHT22;3884;48.616;12.872;2023-01-19T05:56:09;-0.20;99.90
7684;DHT22;3884;48.616;12.872;2023-01-19T05:58:36;-0.20;99.90
7684;DHT22;3884;48.616;12.872;2023-01-19T06:01:05;-0.20;1.00
7684;DHT22;3884;48.616;12.872;2023-01-19T06:03:33;-0.20;1.00
7684;DHT22;3884;48.616;12.872;2023-01-19T06:06:01;-0.30;99.90
7684;DHT22;3884;48.616;12.872;2023-01-19T06:08:29;-0.30;67.80
7684;DHT22;3884;48.616;12.872;2023-01-19T06:10:56;-0.30;99.90
7684;DHT22;3884;48.616;12.872;2023-01-19T06:13:24;-0.30;1.00
7684;DHT22;3884;48.616;12.872;2023-01-19T06:15:56;-0.30;1.00
7684;DHT22;3884;48.616;12.872;2023-01-19T06:18:23;-0.30;99.90
7684;DHT22;3884;48.616;12.872;2023-01-19T06:20:50;-0.30;1.00
7684;DHT22;3884;48.616;12.872;2023-01-19T06:23:23;-0.30;99.90
7684;DHT22;3884;48.616;12.872;2023-01-19T06:25:50;-0.20;1.00
7684;DHT22;3884;48.616;12.872;2023-01-19T06:28:17;-0.20;1.00
7684;DHT22;3884;48.616;12.872;2023-01-19T06:30:47;-0.30;99.90
7684;DHT22;3884;48.616;12.872;2023-01-19T06:33:15;-0.30;1.00
7684;DHT22;3884;48.616;12.872;2023-01-19T06:35:42;-0.30;99.90
7684;DHT22;3884;48.616;12.872;2023-01-19T06:38:09;-0.30;1.00
7684;DHT22;3884;48.616;12.872;2023-01-19T06:40:38;-0.30;1.00
7684;DHT22;3884;48.616;12.872;2023-01-19T06:43:05;-0.30;1.00
7684;DHT22;3884;48.616;12.872;2023-01-19T06:45:33;-0.40;1.00
7684;DHT22;3884;48.616;12.872;2023-01-19T06:48:02;-0.40;1.00
7684;DHT22;3884;48.616;12.872;2023-01-19T06:50:29;-0.40;1.00
7684;DHT22;3884;48.616;12.872;2023-01-19T06:52:56;-0.50;99.90
7684;DHT22;3884;48.616;12.872;2023-01-19T06:55:24;-0.50;1.00
7684;DHT22;3884;48.616;12.872;2023-01-19T06:57:55;-0.50;1.00
7684;DHT22;3884;48.616;12.872;2023-01-19T07:00:23;-0.50;4.20
7684;DHT22;3884;48.616;12.872;2023-01-19T07:02:51;-0.50;1.00
7684;DHT22;3884;48.616;12.872;2023-01-19T07:05:19;-0.50;99.90
7684;DHT22;3884;48.616;12.872;2023-01-19T07:07:50;-0.60;1.00
7684;DHT22;3884;48.616;12.872;2023-01-19T07:10:18;-0.60;1.00
7684;DHT22;3884;48.616;12.872;2023-01-19T07:12:45;-0.70;99.90
7684;DHT22;3884;48.616;12.872;2023-01-19T07:15:13;-0.70;99.90
7684;DHT22;3884;48.616;12.872;2023-01-19T07:17:40;-0.70;1.00
7684;DHT22;3884;48.616;12.872;2023-01-19T07:20:09;-0.70;1.00
7684;DHT22;3884;48.616;12.872;2023-01-19T07:22:41;-0.60;1.00
7684;DHT22;3884;48.616;12.872;2023-01-19T07:25:10;-0.70;99.90
7684;DHT22;3884;48.616;12.872;2023-01-19T07:27:37;-0.60;99.90
7684;DHT22;3884;48.616;12.872;2023-01-19T07:30:06;-0.60;99.90
7684;DHT22;3884;48.616;12.872;2023-01-19T07:32:33;-0.60;99.90
7684;DHT22;3884;48.616;12.872;2023-01-19T07:35:00;-0.50;1.00
7684;DHT22;3884;48.616;12.872;2023-01-19T07:37:28;-0.60;99.90
7684;DHT22;3884;48.616;12.872;2023-01-19T07:39:56;-0.50;99.90
7684;DHT22;3884;48.616;12.872;2023-01-19T07:42:23;-0.60;99.90
7684;DHT22;3884;48.616;12.872;2023-01-19T07:44:50;-0.60;99.90
7684;DHT22;3884;48.616;12.872;2023-01-19T07:47:18;-0.70;99.90
7684;DHT22;3884;48.616;12.872;2023-01-19T07:49:48;-0.50;99.90
7684;DHT22;3884;48.616;12.872;2023-01-19T07:52:15;-0.60;99.90
7684;DHT22;3884;48.616;12.872;2023-01-19T07:54:42;-0.60;99.90
7684;DHT22;3884;48.616;12.872;2023-01-19T07:57:10;-0.60;1.00
7684;DHT22;3884;48.616;12.872;2023-01-19T07:59:37;-0.60;1.00
7684;DHT22;3884;48.616;12.872;2023-01-19T08:02:04;-0.60;99.90
7684;DHT22;3884;48.616;12.872;2023-01-19T08:04:32;-0.50;91.90
7684;DHT22;3884;48.616;12.872;2023-01-19T08:06:59;-0.40;9.90
7684;DHT22;3884;48.616;12.872;2023-01-19T08:09:26;-0.40;1.20
7684;DHT22;3884;48.616;12.872;2023-01-19T08:11:53;-0.40;1.00
7684;DHT22;3884;48.616;12.872;2023-01-19T08:14:22;-0.40;1.00
7684;DHT22;3884;48.616;12.872;2023-01-19T08:16:49;-0.40;1.00
7684;DHT22;3884;48.616;12.872;2023-01-19T08:19:16;-0.40;44.80
7684;DHT22;3884;48.616;12.872;2023-01-19T08:21:44;-0.40;1.00
7684;DHT22;3884;48.616;12.872;2023-01-19T08:24:17;-0.40;99.90
7684;DHT22;3884;48.616;12.872;2023-01-19T08:26:46;-0.40;1.00
7684;DHT22;3884;48.616;12.872;2023-01-19T08:29:13;-0.40;99.90
7684;DHT22;3884;48.616;12.872;2023-01-19T08:31:41;-0.40;99.90
7684;DHT22;3884;48.616;12.872;2023-01-19T08:34:09;-0.40;47.00
7684;DHT22;3884;48.616;12.872;2023-01-19T08:36:36;-0.40;1.00
7684;DHT22;3884;48.616;12.872;2023-01-19T08:39:03;-0.40;99.90
7684;DHT22;3884;48.616;12.872;2023-01-19T08:41:30;-0.40;1.00
7684;DHT22;3884;48.616;12.872;2023-01-19T08:43:58;-0.40;58.00
7684;DHT22;3884;48.616;12.872;2023-01-19T08:46:25;-0.40;99.90
7684;DHT22;3884;48.616;12.872;2023-01-19T08:48:53;-0.40;1.00
7684;DHT22;3884;48.616;12.872;2023-01-19T08:51:20;-0.40;99.90
7684;DHT22;3884;48.616;12.872;2023-01-19T08:53:47;-0.40;1.00
7684;DHT22;3884;48.616;12.872;2023-01-19T08:56:15;-0.40;99.90
7684;DHT22;3884;48.616;12.872;2023-01-19T08:58:43;-0.50;99.90
7684;DHT22;3884;48.616;12.872;2023-01-19T09:01:11;-0.50;99.90
7684;DHT22;3884;48.616;12.872;2023-01-19T09:03:41;-0.40;99.90
7684;DHT22;3884;48.616;12.872;2023-01-19T09:06:12;-0.40;1.00
7684;DHT22;3884;48.616;12.872;2023-01-19T09:08:41;-0.40;1.00
7684;DHT22;3884;48.616;12.872;2023-01-19T09:11:09;-0.40;99.90
7684;DHT22;3884;48.616;12.872;2023-01-19T09:13:37;-0.50;82.80
7684;DHT22;3884;48.616;12.872;2023-01-19T09:16:05;-0.40;1.00
7684;DHT22;3884;48.616;12.872;2023-01-19T09:18:34;-0.40;1.00
7684;DHT22;3884;48.616;12.872;2023-01-19T09:21:01;-0.30;99.90
7684;DHT22;3884;48.616;12.872;2023-01-19T09:23:30;-0.40;1.00
7684;DHT22;3884;48.616;12.872;2023-01-19T09:25:59;-0.30;1.00
7684;DHT22;3884;48.616;12.872;2023-01-19T09:28:27;-0.30;1.00
7684;DHT22;3884;48.616;12.872;2023-01-19T09:30:54;-0.30;1.00
7684;DHT22;3884;48.616;12.872;2023-01-19T09:33:22;-0.30;99.90
7684;DHT22;3884;48.616;12.872;2023-01-19T09:35:50;-0.30;1.00
7684;DHT22;3884;48.616;12.872;2023-01-19T09:38:18;-0.20;1.00
7684;DHT22;3884;48.616;12.872;2023-01-19T09:40:50;-0.20;99.90
7684;DHT22;3884;48.616;12.872;2023-01-19T09:43:24;-0.10;43.80
7684;DHT22;3884;48.616;12.872;2023-01-19T09:45:55;-0.10;1.00
7684;DHT22;3884;48.616;12.872;2023-01-19T09:48:34;0.00;1.00
7684;DHT22;3884;48.616;12.872;2023-01-19T09:51:09;0.00;1.00
7684;DHT22;3884;48.616;12.872;2023-01-19T09:53:50;0.10;1.00
7684;DHT22;3884;48.616;12.872;2023-01-19T09:56:22;0.10;93.00
7684;DHT22;3884;48.616;12.872;2023-01-19T09:58:50;0.10;99.90
7684;DHT22;3884;48.616;12.872;2023-01-19T10:01:33;0.10;99.90
7684;DHT22;3884;48.616;12.872;2023-01-19T10:04:23;0.10;99.90
7684;DHT22;3884;48.616;12.872;2023-01-19T10:06:56;0.00;99.90
7684;DHT22;3884;48.616;12.872;2023-01-19T10:09:30;0.10;99.90
7684;DHT22;3884;48.616;12.872;2023-01-19T10:12:02;0.20;1.00
7684;DHT22;3884;48.616;12.872;2023-01-19T10:14:37;0.30;1.00
7684;DHT22;3884;48.616;12.872;2023-01-19T10:17:16;0.20;1.00
7684;DHT22;3884;48.616;12.872;2023-01-19T10:19:48;0.30;1.00
7684;DHT22;3884;48.616;12.872;2023-01-19T10:22:19;0.30;99.90
7684;DHT22;3884;48.616;12.872;2023-01-19T10:24:50;0.30;1.00
7684;DHT22;3884;48.616;12.872;2023-01-19T10:27:23;0.30;99.90
7684;DHT22;3884;48.616;12.872;2023-01-19T10:29:52;0.20;99.90
7684;DHT22;3884;48.616;12.872;2023-01-19T10:32:21;0.20;99.90
7684;DHT22;3884;48.616;12.872;2023-01-19T10:34:49;0.30;1.00
7684;DHT22;3884;48.616;12.872;2023-01-19T10:37:24;0.30;99.90
7684;DHT22;3884;48.616;12.872;2023-01-19T10:39:55;0.40;99.90
7684;DHT22;3884;48.616;12.872;2023-01-19T10:42:28;0.40;18.40
7684;DHT22;3884;48.616;12.872;2023-01-19T10:44:55;0.40;99.90
7684;DHT22;3884;48.616;12.872;2023-01-19T10:47:28;0.40;1.00
7684;DHT22;3884;48.616;12.872;2023-01-19T10:49:57;0.40;99.90
7684;DHT22;3884;48.616;12.872;2023-01-19T10:52:28;0.40;99.90
7684;DHT22;3884;48.616;12.872;2023-01-19T10:54:56;0.40;67.60
7684;DHT22;3884;48.616;12.872;2023-01-19T10:57:29;0.50;99.90
7684;DHT22;3884;48.616;12.872;2023-01-19T10:59:57;0.50;99.90
7684;DHT22;3884;48.616;12.872;2023-01-19T11:02:26;0.40;99.90
7684;DHT22;3884;48.616;12.872;2023-01-19T11:04:54;0.40;99.90
7684;DHT22;3884;48.616;12.872;2023-01-19T11:07:24;0.40;99.90
7684;DHT22;3884;48.616;12.872;2023-01-19T11:10:19;0.50;99.90
7684;DHT22;3884;48.616;12.872;2023-01-19T11:12:55;0.50;99.90
7684;DHT22;3884;48.616;12.872;2023-01-19T11:15:29;0.60;99.90
7684;DHT22;3884;48.616;12.872;2023-01-19T11:17:57;0.60;99.90
7684;DHT22;3884;48.616;12.872;2023-01-19T11:20:27;0.60;99.90
7684;DHT22;3884;48.616;12.872;2023-01-19T11:23:06;0.70;99.90
7684;DHT22;3884;48.616;12.872;2023-01-19T11:25:44;0.70;47.90
7684;DHT22;3884;48.616;12.872;2023-01-19T11:28:17;0.70;64.40
7684;DHT22;3884;48.616;12.872;2023-01-19T11:30:53;0.80;99.90
7684;DHT22;3884;48.616;12.872;2023-01-19T11:33:25;0.70;4.60
7684;DHT22;3884;48.616;12.872;2023-01-19T11:36:03;0.70;1.00
7684;DHT22;3884;48.616;12.872;2023-01-19T11:38:31;0.70;33.50
7684;DHT22;3884;48.616;12.872;2023-01-19T11:40:59;0.70;1.00
7684;DHT22;3884;48.616;12.872;2023-01-19T11:43:30;0.70;99.90
7684;DHT22;3884;48.616;12.872;2023-01-19T11:45:57;0.70;1.00
7684;DHT22;3884;48.616;12.872;2023-01-19T11:48:28;0.90;79.90
7684;DHT22;3884;48.616;12.872;2023-01-19T11:51:01;0.90;99.90
7684;DHT22;3884;48.616;12.872;2023-01-19T11:53:33;0.90;1.00
7684;DHT22;3884;48.616;12.872;2023-01-19T11:56:05;0.80;99.90
7684;DHT22;3884;48.616;12.872;2023-01-19T11:58:39;0.90;99.90
7684;DHT22;3884;48.616;12.872;2023-01-19T12:01:11;0.90;1.00
7684;DHT22;3884;48.616;12.872;2023-01-19T12:03:44;1.00;99.90
7684;DHT22;3884;48.616;12.872;2023-01-19T12:06:15;1.00;51.50
7684;DHT22;3884;48.616;12.872;2023-01-19T12:08:45;1.00;99.90
7684;DHT22;3884;48.616;12.872;2023-01-19T12:11:17;1.00;99.90
7684;DHT22;3884;48.616;12.872;2023-01-19T12:13:47;1.00;99.90
7684;DHT22;3884;48.616;12.872;2023-01-19T12:16:19;1.10;87.40
7684;DHT22;3884;48.616;12.872;2023-01-19T12:18:50;1.10;1.00
7684;DHT22;3884;48.616;12.872;2023-01-19T12:21:18;1.00;86.70
7684;DHT22;3884;48.616;12.872;2023-01-19T12:24:02;1.00;1.00
7684;DHT22;3884;48.616;12.872;2023-01-19T12:26:39;1.00;1.00
7684;DHT22;3884;48.616;12.872;2023-01-19T12:29:14;0.90;78.90
7684;DHT22;3884;48.616;12.872;2023-01-19T12:31:41;1.00;1.00
7684;DHT22;3884;48.616;12.872;2023-01-19T12:34:28;1.00;1.00
7684;DHT22;3884;48.616;12.872;2023-01-19T12:37:03;1.00;1.00
7684;DHT22;3884;48.616;12.872;2023-01-19T12:39:32;1.00;1.00
7684;DHT22;3884;48.616;12.872;2023-01-19T12:42:11;1.00;1.00
7684;DHT22;3884;48.616;12.872;2023-01-19T12:44:40;1.10;11.80
7684;DHT22;3884;48.616;12.872;2023-01-19T12:47:19;1.10;99.90
7684;DHT22;3884;48.616;12.872;2023-01-19T12:49:50;1.10;99.90
7684;DHT22;3884;48.616;12.872;2023-01-19T12:52:31;1.00;1.00
7684;DHT22;3884;48.616;12.872;2023-01-19T12:55:06;1.00;1.00
7684;DHT22;3884;48.616;12.872;2023-01-19T12:57:52;1.00;1.00
7684;DHT22;3884;48.616;12.872;2023-01-19T13:00:34;1.00;1.00
7684;DHT22;3884;48.616;12.872;2023-01-19T13:03:04;1.00;1.00
7684;DHT22;3884;48.616;12.872;2023-01-19T13:05:50;1.00;1.00
7684;DHT22;3884;48.616;12.872;2023-01-19T13:08:20;0.90;1.00
7684;DHT22;3884;48.616;12.872;2023-01-19T13:11:19;0.90;1.00
7684;DHT22;3884;48.616;12.872;2023-01-19T13:19:52;1.00;1.00
7684;DHT22;3884;48.616;12.872;2023-01-19T13:25:30;0.90;1.00
7684;DHT22;3884;48.616;12.872;2023-01-19T13:28:01;1.00;1.00
7684;DHT22;3884;48.616;12.872;2023-01-19T13:30:29;1.00;24.30
7684;DHT22;3884;48.616;12.872;2023-01-19T13:33:05;1.00;1.00
7684;DHT22;3884;48.616;12.872;2023-01-19T13:35:32;1.10;99.90
7684;DHT22;3884;48.616;12.872;2023-01-19T13:37:59;1.10;1.00
7684;DHT22;3884;48.616;12.872;2023-01-19T13:40:32;1.00;1.00
7684;DHT22;3884;48.616;12.872;2023-01-19T13:43:03;1.10;1.00
7684;DHT22;3884;48.616;12.872;2023-01-19T13:45:34;1.10;1.00
7684;DHT22;3884;48.616;12.872;2023-01-19T13:48:10;1.10;1.00
7684;DHT22;3884;48.616;12.872;2023-01-19T13:50:40;1.20;1.00
7684;DHT22;3884;48.616;12.872;2023-01-19T13:53:16;1.20;1.00
7684;DHT22;3884;48.616;12.872;2023-01-19T13:55:45;1.20;1.00
7684;DHT22;3884;48.616;12.872;2023-01-19T13:58:19;1.10;1.00
7684;DHT22;3884;48.616;12.872;2023-01-19T14:00:47;1.20;1.00
7684;DHT22;3884;48.616;12.872;2023-01-19T14:03:19;1.10;1.00
7684;DHT22;3884;48.616;12.872;2023-01-19T14:05:49;1.10;1.00
7684;DHT22;3884;48.616;12.872;2023-01-19T14:08:17;1.10;1.00
7684;DHT22;3884;48.616;12.872;2023-01-19T14:10:46;1.20;1.00
7684;DHT22;3884;48.616;12.872;2023-01-19T14:13:27;1.30;1.00
7684;DHT22;3884;48.616;12.872;2023-01-19T14:15:57;1.40;1.00
7684;DHT22;3884;48.616;12.872;2023-01-19T14:18:27;1.30;1.00
7684;DHT22;3884;48.616;12.872;2023-01-19T14:21:01;1.30;1.00
7684;DHT22;3884;48.616;12.872;2023-01-19T14:23:38;1.30;1.00
7684;DHT22;3884;48.616;12.872;2023-01-19T14:26:08;1.20;1.00
7684;DHT22;3884;48.616;12.872;2023-01-19T14:28:53;1.20;1.00
7684;DHT22;3884;48.616;12.872;2023-01-19T14:31:22;1.20;1.00
7684;DHT22;3884;48.616;12.872;2023-01-19T14:33:51;1.20;1.00
7684;DHT22;3884;48.616;12.872;2023-01-19T14:36:27;1.10;1.00
7684;DHT22;3884;48.616;12.872;2023-01-19T14:38:56;1.30;1.00
7684;DHT22;3884;48.616;12.872;2023-01-19T14:41:26;1.30;1.00
7684;DHT22;3884;48.616;12.872;2023-01-19T14:43:56;1.30;1.00
7684;DHT22;3884;48.616;12.872;2023-01-19T14:46:25;1.30;1.00
7684;DHT22;3884;48.616;12.872;2023-01-19T14:48:59;1.20;99.90
7684;DHT22;3884;48.616;12.872;2023-01-19T14:51:28;1.20;99.90
7684;DHT22;3884;48.616;12.872;2023-01-19T14:53:57;1.20;1.00
7684;DHT22;3884;48.616;12.872;2023-01-19T14:56:27;1.10;1.00
7684;DHT22;3884;48.616;12.872;2023-01-19T14:58:54;1.20;99.90
7684;DHT22;3884;48.616;12.872;2023-01-19T15:01:22;1.10;99.90
7684;DHT22;3884;48.616;12.872;2023-01-19T15:03:49;1.10;1.00
7684;DHT22;3884;48.616;12.872;2023-01-19T15:06:19;1.10;1.00
7684;DHT22;3884;48.616;12.872;2023-01-19T15:08:46;1.00;1.00
7684;DHT22;3884;48.616;12.872;2023-01-19T15:11:20;1.00;1.00
7684;DHT22;3884;48.616;12.872;2023-01-19T15:13:49;1.00;1.00
7684;DHT22;3884;48.616;12.872;2023-01-19T15:16:17;1.00;1.00
7684;DHT22;3884;48.616;12.872;2023-01-19T15:18:44;0.90;99.90
7684;DHT22;3884;48.616;12.872;2023-01-19T15:21:13;0.90;99.90
7684;DHT22;3884;48.616;12.872;2023-01-19T15:23:42;0.90;1.00
7684;DHT22;3884;48.616;12.872;2023-01-19T15:26:12;0.90;1.00
7684;DHT22;3884;48.616;12.872;2023-01-19T15:28:41;0.90;1.00
7684;DHT22;3884;48.616;12.872;2023-01-19T15:31:12;0.80;1.00
7684;DHT22;3884;48.616;12.872;2023-01-19T15:33:40;0.80;1.00
7684;DHT22;3884;48.616;12.872;2023-01-19T15:36:11;0.80;1.00
7684;DHT22;3884;48.616;12.872;2023-01-19T15:38:38;0.80;1.00
7684;DHT22;3884;48.616;12.872;2023-01-19T15:41:11;0.80;1.00
7684;DHT22;3884;48.616;12.872;2023-01-19T15:43:39;0.80;1.00
7684;DHT22;3884;48.616;12.872;2023-01-19T15:46:06;0.80;1.00
7684;DHT22;3884;48.616;12.872;2023-01-19T15:48:33;0.70;1.00
7684;DHT22;3884;48.616;12.872;2023-01-19T15:51:00;0.70;1.00
7684;DHT22;3884;48.616;12.872;2023-01-19T15:53:27;0.80;1.00
7684;DHT22;3884;48.616;12.872;2023-01-19T15:55:55;0.80;1.00
7684;DHT22;3884;48.616;12.872;2023-01-19T15:58:24;0.70;1.00
7684;DHT22;3884;48.616;12.872;2023-01-19T16:00:55;0.70;1.00
7684;DHT22;3884;48.616;12.872;2023-01-19T16:03:23;0.70;1.00
7684;DHT22;3884;48.616;12.872;2023-01-19T16:05:51;0.70;1.00
7684;DHT22;3884;48.616;12.872;2023-01-19T16:08:18;0.70;1.00
7684;DHT22;3884;48.616;12.872;2023-01-19T16:10:46;0.70;1.00
7684;DHT22;3884;48.616;12.872;2023-01-19T16:13:13;0.70;1.00
7684;DHT22;3884;48.616;12.872;2023-01-19T16:15:42;0.70;1.00
7684;DHT22;3884;48.616;12.872;2023-01-19T16:18:09;0.70;1.00
7684;DHT22;3884;48.616;12.872;2023-01-19T16:20:36;0.70;1.00
7684;DHT22;3884;48.616;12.872;2023-01-19T16:23:04;0.70;1.00
7684;DHT22;3884;48.616;12.872;2023-01-19T16:25:31;0.70;99.90
7684;DHT22;3884;48.616;12.872;2023-01-19T16:28:00;0.70;1.00
7684;DHT22;3884;48.616;12.872;2023-01-19T16:30:27;0.70;1.00
7684;DHT22;3884;48.616;12.872;2023-01-19T16:32:55;0.70;1.00